createdAt,value
2022-11-14T05:04:36.667Z,-92
2022-11-14T05:07:04.825Z,-92
2022-11-14T05:09:32.968Z,-92
2022-11-14T05:12:01.018Z,-91
2022-11-14T05:14:29.090Z,-92
2022-11-14T05:16:57.526Z,-80
2022-11-14T05:19:26.687Z,-80
2022-11-14T05:21:56.286Z,-80
2022-11-14T05:24:24.288Z,-80
2022-11-14T05:26:52.309Z,-80
2022-11-14T05:29:21.422Z,-80
2022-11-14T05:31:49.445Z,-80
2022-11-14T05:34:17.972Z,-88
2022-11-14T05:36:46.111Z,-88
2022-11-14T05:39:15.564Z,-88
2022-11-14T05:41:43.789Z,-88
2022-11-14T05:44:12.100Z,-87
2022-11-14T05:46:40.175Z,-88
2022-11-14T05:49:08.223Z,-88
2022-11-14T05:51:36.265Z,-87
2022-11-14T05:54:04.724Z,-87
2022-11-14T05:56:34.217Z,-87
2022-11-14T05:59:02.217Z,-85
2022-11-14T06:01:30.338Z,-83
2022-11-14T06:03:58.419Z,-84
2022-11-14T06:06:26.596Z,-84
2022-11-14T06:08:54.740Z,-85
2022-11-14T06:11:23.152Z,-85
2022-11-14T06:13:53.175Z,-85
2022-11-14T06:16:22.168Z,-82
2022-11-14T06:18:50.169Z,-82
2022-11-14T06:21:19.559Z,-82
2022-11-14T06:23:48.175Z,-82
2022-11-14T06:26:21.801Z,-83
2022-11-14T06:28:50.120Z,-82
2022-11-14T06:31:20.052Z,-82
2022-11-14T06:33:48.840Z,-81
2022-11-14T06:36:17.539Z,-82
2022-11-14T06:38:46.090Z,-81
2022-11-14T06:41:15.420Z,-81
2022-11-14T06:43:44.574Z,-80
2022-11-14T06:46:13.804Z,-81
2022-11-14T06:48:44.039Z,-81
2022-11-14T06:51:13.459Z,-81
2022-11-14T06:53:42.011Z,-81
2022-11-14T06:56:15.295Z,-81
2022-11-14T06:58:44.583Z,-81
2022-11-14T07:01:14.231Z,-82
2022-11-14T07:03:44.216Z,-84
2022-11-14T07:06:13.582Z,-84
2022-11-14T07:08:41.665Z,-83
2022-11-14T07:11:11.025Z,-84
2022-11-14T07:13:39.911Z,-82
2022-11-14T07:16:08.739Z,-82
2022-11-14T07:18:36.756Z,-82
2022-11-14T07:21:07.568Z,-82
2022-11-14T07:23:36.503Z,-82
2022-11-14T07:26:05.040Z,-82
2022-11-14T07:28:33.315Z,-83
2022-11-14T07:31:03.923Z,-81
2022-11-14T07:33:32.501Z,-83
2022-11-14T07:36:00.732Z,-82
2022-11-14T07:38:32.221Z,-81
2022-11-14T07:41:01.896Z,-82
2022-11-14T07:43:30.234Z,-82
2022-11-14T07:46:00.458Z,-82
2022-11-14T07:48:29.046Z,-82
2022-11-14T07:50:59.928Z,-81
2022-11-14T07:53:29.684Z,-82
2022-11-14T07:55:58.217Z,-83
2022-11-14T07:58:26.389Z,-82
2022-11-14T08:00:54.563Z,-82
2022-11-14T08:03:22.746Z,-82
2022-11-14T08:05:50.916Z,-82
2022-11-14T08:08:19.059Z,-81
2022-11-14T08:10:48.564Z,-81
2022-11-14T08:13:31.791Z,-82
2022-11-14T08:16:07.940Z,-81
2022-11-14T08:18:39.513Z,-81
2022-11-14T08:21:08.159Z,-81
2022-11-14T08:23:36.377Z,-86
2022-11-14T08:26:06.016Z,-86
2022-11-14T08:28:34.418Z,-80
2022-11-14T08:31:02.912Z,-80
2022-11-14T08:33:31.680Z,-80
2022-11-14T08:36:02.988Z,-80
2022-11-14T08:38:33.542Z,-80
2022-11-14T08:41:04.284Z,-81
2022-11-14T08:43:35.188Z,-80
2022-11-14T08:46:06.606Z,-80
2022-11-14T08:48:35.142Z,-80
2022-11-14T08:51:08.034Z,-80
2022-11-14T08:53:36.414Z,-80
2022-11-14T08:56:05.265Z,-80
2022-11-14T08:58:35.334Z,-80
2022-11-14T09:01:05.188Z,-80
2022-11-14T09:03:34.131Z,-81
2022-11-14T09:06:03.673Z,-80
2022-11-14T09:08:32.542Z,-79
2022-11-14T09:11:09.240Z,-80
2022-11-14T09:13:39.840Z,-81
2022-11-14T09:16:09.859Z,-81
2022-11-14T09:18:38.277Z,-80
2022-11-14T09:21:07.992Z,-81
2022-11-14T09:23:37.130Z,-81
2022-11-14T09:26:06.388Z,-80
2022-11-14T09:28:37.492Z,-81
2022-11-14T09:31:09.625Z,-80
2022-11-14T09:33:38.227Z,-80
2022-11-14T09:36:09.156Z,-81
2022-11-14T09:38:38.887Z,-80
2022-11-14T09:41:21.924Z,-81
2022-11-14T09:44:06.289Z,-81
2022-11-14T09:46:41.513Z,-81
2022-11-14T09:49:37.593Z,-80
2022-11-14T09:52:13.645Z,-83
2022-11-14T09:54:47.468Z,-83
2022-11-14T09:57:18.081Z,-83
2022-11-14T09:59:49.699Z,-83
2022-11-14T10:02:35.934Z,-83
2022-11-14T10:05:26.610Z,-87
2022-11-14T10:08:08.215Z,-85
2022-11-14T10:10:52.777Z,-86
2022-11-14T10:13:39.389Z,-86
2022-11-14T10:16:14.170Z,-87
2022-11-14T10:19:00.444Z,-87
2022-11-14T10:21:39.626Z,-88
2022-11-14T10:24:21.153Z,-86
2022-11-14T10:26:56.149Z,-88
2022-11-14T10:29:50.045Z,-88
2022-11-14T10:32:26.478Z,-88
2022-11-14T10:35:02.480Z,-87
2022-11-14T10:37:35.027Z,-86
2022-11-14T10:40:15.673Z,-88
2022-11-14T10:42:48.228Z,-87
2022-11-14T10:45:21.145Z,-88
2022-11-14T10:47:53.960Z,-85
2022-11-14T10:50:27.555Z,-84
2022-11-14T10:53:00.420Z,-87
2022-11-14T10:55:50.044Z,-87
2022-11-14T10:58:18.256Z,-87
2022-11-14T11:00:46.919Z,-86
2022-11-14T11:03:15.936Z,-87
2022-11-14T11:05:51.541Z,-89
2022-11-14T11:08:43.657Z,-89
2022-11-14T11:11:33.953Z,-89
2022-11-14T11:14:03.583Z,-89
2022-11-14T11:16:37.466Z,-89
2022-11-14T11:19:27.598Z,-89
2022-11-14T11:21:59.015Z,-89
2022-11-14T11:24:32.981Z,-89
2022-11-14T11:27:24.977Z,-89
2022-11-14T11:30:09.983Z,-90
2022-11-14T11:32:38.697Z,-89
2022-11-14T11:35:12.531Z,-89
2022-11-14T11:37:45.869Z,-88
2022-11-14T11:40:23.021Z,-89
2022-11-14T11:45:47.976Z,-92
2022-11-14T11:48:19.239Z,-89
2022-11-14T11:50:48.063Z,-88
2022-11-14T11:53:25.722Z,-87
2022-11-14T11:55:58.305Z,-88
2022-11-14T11:58:33.538Z,-87
2022-11-14T12:01:02.019Z,-87
2022-11-14T12:03:30.967Z,-87
2022-11-14T12:06:05.667Z,-87
2022-11-14T12:08:39.611Z,-87
2022-11-14T12:11:14.643Z,-87
2022-11-14T12:14:08.267Z,-87
2022-11-14T12:16:59.402Z,-87
2022-11-14T12:20:01.537Z,-88
2022-11-14T12:23:03.119Z,-89
2022-11-14T12:25:42.882Z,-88
2022-11-14T12:28:20.948Z,-88
2022-11-14T12:30:52.876Z,-86
2022-11-14T12:33:28.272Z,-88
2022-11-14T12:35:59.298Z,-87
2022-11-14T12:38:28.722Z,-88
2022-11-14T12:41:01.528Z,-88
2022-11-14T12:43:42.616Z,-88
2022-11-14T12:46:13.066Z,-88
2022-11-14T12:48:45.229Z,-88
2022-11-14T12:51:51.365Z,-88
2022-11-14T12:54:44.391Z,-88
2022-11-14T12:57:38.868Z,-88
2022-11-14T13:00:10.142Z,-88
2022-11-14T13:03:20.447Z,-86
2022-11-14T13:05:57.396Z,-88
2022-11-14T13:08:50.773Z,-88
2022-11-14T13:11:50.113Z,-89
2022-11-14T13:14:38.508Z,-89
2022-11-14T13:17:43.239Z,-88
2022-11-14T13:20:47.984Z,-90
2022-11-14T13:23:56.081Z,-89
2022-11-14T13:26:47.487Z,-90
2022-11-14T13:29:57.806Z,-90
2022-11-14T13:32:58.602Z,-88
2022-11-14T13:35:50.578Z,-87
2022-11-14T13:39:07.737Z,-87
2022-11-14T13:42:06.998Z,-87
2022-11-14T13:44:59.649Z,-88
2022-11-14T13:48:09.062Z,-88
2022-11-14T13:50:40.633Z,-87
2022-11-14T13:53:16.617Z,-87
2022-11-14T13:56:14.357Z,-87
2022-11-14T13:59:16.525Z,-87
2022-11-14T14:01:53.338Z,-86
2022-11-14T14:04:32.257Z,-87
2022-11-14T14:07:12.279Z,-87
2022-11-14T14:09:45.394Z,-88
2022-11-14T14:12:28.765Z,-88
2022-11-14T14:15:18.544Z,-88
2022-11-14T14:17:54.926Z,-88
2022-11-14T14:20:33.853Z,-87
2022-11-14T14:23:14.220Z,-88
2022-11-14T14:25:47.046Z,-81
2022-11-14T14:28:22.520Z,-81
2022-11-14T14:31:10.291Z,-81
2022-11-14T14:33:43.028Z,-80
2022-11-14T14:36:23.886Z,-80
2022-11-14T14:39:09.051Z,-81
2022-11-14T14:41:37.934Z,-80
2022-11-14T14:44:06.628Z,-81
2022-11-14T14:46:35.032Z,-81
2022-11-14T14:49:05.578Z,-82
2022-11-14T14:51:37.347Z,-80
2022-11-14T14:54:08.069Z,-80
2022-11-14T14:56:36.270Z,-80
2022-11-14T14:59:17.879Z,-80
2022-11-14T15:01:46.994Z,-80
2022-11-14T15:04:17.342Z,-81
2022-11-14T15:06:47.904Z,-80
2022-11-14T15:09:20.251Z,-80
2022-11-14T15:11:51.497Z,-81
2022-11-14T15:14:22.558Z,-81
2022-11-14T15:16:51.611Z,-80
2022-11-14T15:19:21.969Z,-81
2022-11-14T15:22:04.645Z,-82
2022-11-14T15:24:34.579Z,-82
2022-11-14T15:27:06.228Z,-81
2022-11-14T15:29:36.023Z,-81
2022-11-14T15:32:05.866Z,-81
2022-11-14T15:34:35.982Z,-81
2022-11-14T15:37:24.118Z,-81
2022-11-14T15:39:55.803Z,-81
2022-11-14T15:42:30.083Z,-82
2022-11-14T15:44:59.627Z,-82
2022-11-14T15:47:30.421Z,-82
2022-11-14T15:50:04.352Z,-82
2022-11-14T15:52:36.849Z,-82
2022-11-14T15:55:15.061Z,-81
2022-11-14T15:57:51.716Z,-82
2022-11-14T16:00:24.910Z,-81
2022-11-14T16:02:56.015Z,-81
2022-11-14T16:05:27.979Z,-82
2022-11-14T16:07:57.580Z,-81
2022-11-14T16:10:29.663Z,-81
2022-11-14T16:12:59.214Z,-82
2022-11-14T16:15:27.854Z,-81
2022-11-14T16:17:56.977Z,-82
2022-11-14T16:20:26.906Z,-81
2022-11-14T16:22:57.216Z,-80
2022-11-14T16:25:29.862Z,-81
2022-11-14T16:27:58.603Z,-81
2022-11-14T16:30:28.074Z,-81
2022-11-14T16:32:56.943Z,-81
2022-11-14T16:35:27.250Z,-81
2022-11-14T16:37:56.332Z,-81
2022-11-14T16:40:29.874Z,-81
2022-11-14T16:43:01.477Z,-81
2022-11-14T16:45:31.212Z,-81
2022-11-14T16:47:59.806Z,-81
2022-11-14T16:50:28.316Z,-81
2022-11-14T16:52:56.646Z,-81
2022-11-14T16:55:26.832Z,-81
2022-11-14T16:57:55.855Z,-81
2022-11-14T17:00:24.632Z,-81
2022-11-14T17:02:54.414Z,-82
2022-11-14T17:05:23.132Z,-82
2022-11-14T17:07:51.624Z,-82
2022-11-14T17:10:20.741Z,-80
2022-11-14T17:12:51.042Z,-81
2022-11-14T17:15:19.622Z,-81
2022-11-14T17:17:50.315Z,-81
2022-11-14T17:20:18.816Z,-80
2022-11-14T17:22:47.841Z,-80
2022-11-14T17:25:16.060Z,-80
2022-11-14T17:27:44.510Z,-80
2022-11-14T17:30:17.371Z,-79
2022-11-14T17:32:46.276Z,-80
2022-11-14T17:35:16.059Z,-79
2022-11-14T17:37:44.466Z,-81
2022-11-14T17:40:15.730Z,-81
2022-11-14T17:42:45.815Z,-82
2022-11-14T17:45:15.830Z,-82
2022-11-14T17:47:44.834Z,-82
2022-11-14T17:50:14.278Z,-81
2022-11-14T17:52:42.838Z,-81
2022-11-14T17:55:18.954Z,-81
2022-11-14T17:57:47.962Z,-81
2022-11-14T18:00:20.567Z,-81
2022-11-14T18:02:48.940Z,-82
2022-11-14T18:05:17.695Z,-81
2022-11-14T18:07:46.997Z,-81
2022-11-14T18:10:16.399Z,-81
2022-11-14T18:12:46.500Z,-82
2022-11-14T18:15:15.346Z,-81
2022-11-14T18:17:45.458Z,-81
2022-11-14T18:20:15.286Z,-80
2022-11-14T18:22:44.229Z,-80
2022-11-14T18:25:13.714Z,-79
2022-11-14T18:27:42.461Z,-79
2022-11-14T18:30:39.891Z,-80
2022-11-14T18:33:04.188Z,-80
2022-11-14T18:35:32.854Z,-78
2022-11-14T18:38:03.079Z,-78
2022-11-14T18:40:31.581Z,-79
2022-11-14T18:42:59.685Z,-80
2022-11-14T18:45:29.449Z,-81
2022-11-14T18:47:57.615Z,-80
2022-11-14T18:50:28.690Z,-80
2022-11-14T18:52:57.328Z,-78
2022-11-14T18:55:25.779Z,-81
2022-11-14T18:57:56.626Z,-79
2022-11-14T19:00:25.217Z,-79
2022-11-14T19:02:54.939Z,-79
2022-11-14T19:05:24.677Z,-82
2022-11-14T19:07:55.905Z,-80
2022-11-14T19:10:25.396Z,-79
2022-11-14T19:12:56.130Z,-78
2022-11-14T19:15:26.919Z,-79
2022-11-14T19:17:55.124Z,-78
2022-11-14T19:20:24.783Z,-79
2022-11-14T19:22:55.431Z,-78
2022-11-14T19:25:23.630Z,-79
2022-11-14T19:27:52.304Z,-78
2022-11-14T19:30:21.762Z,-78
2022-11-14T19:32:50.050Z,-81
2022-11-14T19:35:20.737Z,-81
2022-11-14T19:37:50.551Z,-81
2022-11-14T19:40:21.379Z,-81
2022-11-14T19:42:49.692Z,-81
2022-11-14T19:45:34.963Z,-81
2022-11-14T19:48:04.304Z,-81
2022-11-14T19:50:34.459Z,-81
2022-11-14T19:53:04.172Z,-81
2022-11-14T19:55:35.108Z,-81
2022-11-14T19:58:07.230Z,-81
2022-11-14T20:00:35.375Z,-82
2022-11-14T20:03:04.807Z,-81
2022-11-14T20:05:34.215Z,-81
2022-11-14T20:08:02.822Z,-80
2022-11-14T20:10:31.663Z,-82
2022-11-14T20:13:01.658Z,-81
2022-11-14T20:15:34.282Z,-80
2022-11-14T20:18:03.018Z,-80
2022-11-14T20:20:31.223Z,-80
2022-11-14T20:22:59.603Z,-80
2022-11-14T20:25:28.521Z,-81
2022-11-14T20:28:01.531Z,-81
2022-11-14T20:30:31.453Z,-81
2022-11-14T20:33:00.204Z,-81
2022-11-14T20:35:29.333Z,-80
2022-11-14T20:38:03.229Z,-81
2022-11-14T20:40:33.201Z,-84
2022-11-14T20:43:13.131Z,-86
2022-11-14T20:45:43.199Z,-85
2022-11-14T20:48:12.081Z,-85
2022-11-14T20:50:40.587Z,-85
2022-11-14T20:53:09.479Z,-85
2022-11-14T20:55:38.089Z,-85
2022-11-14T20:58:09.026Z,-85
2022-11-14T21:00:38.426Z,-84
2022-11-14T21:03:11.343Z,-84
2022-11-14T21:05:40.566Z,-85
2022-11-14T21:08:09.227Z,-85
2022-11-14T21:10:48.111Z,-84
2022-11-14T21:13:37.895Z,-85
2022-11-14T21:16:09.029Z,-85
2022-11-14T21:18:42.794Z,-84
2022-11-14T21:21:17.021Z,-85
2022-11-14T21:23:48.806Z,-85
2022-11-14T21:26:18.848Z,-85
2022-11-14T21:28:48.807Z,-85
2022-11-14T21:31:19.167Z,-85
2022-11-14T21:33:50.677Z,-85
2022-11-14T21:36:43.742Z,-84
2022-11-14T21:39:14.950Z,-84
2022-11-14T21:41:44.352Z,-85
2022-11-14T21:44:14.707Z,-84
2022-11-14T21:46:43.059Z,-84
2022-11-14T21:49:14.661Z,-85
2022-11-14T21:51:43.090Z,-84
2022-11-14T21:54:11.250Z,-84
2022-11-14T21:56:39.681Z,-85
2022-11-14T21:59:19.079Z,-84
2022-11-14T22:02:06.418Z,-85
2022-11-14T22:04:37.078Z,-85
2022-11-14T22:07:07.380Z,-85
2022-11-14T22:09:45.154Z,-85
2022-11-14T22:12:13.892Z,-85
2022-11-14T22:14:42.139Z,-85
2022-11-14T22:17:10.739Z,-85
2022-11-14T22:19:40.905Z,-85
2022-11-14T22:22:11.358Z,-85
2022-11-14T22:24:39.995Z,-85
2022-11-14T22:27:08.152Z,-85
2022-11-14T22:29:37.932Z,-85
2022-11-14T22:32:06.692Z,-85
2022-11-14T22:34:35.146Z,-85
2022-11-14T22:37:05.445Z,-85
2022-11-14T22:39:34.028Z,-85
2022-11-14T22:42:02.966Z,-85
2022-11-14T22:44:31.475Z,-85
2022-11-14T22:47:00.688Z,-85
2022-11-14T22:49:29.046Z,-87
